Caldes de Montbui, Spain
Current Conditions -  °F | °C
As of 5:00 AM on Saturday 25 Oct 2014 (Local Time) from LEBL Reporting Station
Clear Clear  
Wind Chill: 59°   Ceiling: Unl
Heat Index: 59°   Visibility: 6mi
Dew Point: 46°   Wind: 10mph
Humidity: 63%   Direction: 320°NW
Pressure: 30.03"   Gusts: NA
Location:  41.63°N, 2.17°E
Report Text: LEBL 250300Z 32009KT 290V350 CAVOK 15/08 Q1017 NOSIG
Loading
Personal Weather Stations






























Interactive Weather Map
Tropical Storm Tracking
New forecast layout! Learn more

10-Day Weather Forecast

Advertisements
Track Severe Weather on mobile